createdAt,value
2023-04-26T00:00:17.130Z,59.377305
2023-04-26T00:05:16.820Z,59.269504
2023-04-26T00:10:16.254Z,58.440141
2023-04-26T00:15:17.399Z,58.998582
2023-04-26T00:20:16.138Z,58.687943
2023-04-26T00:25:15.815Z,58.395035
2023-04-26T00:30:16.298Z,58.280142
2023-04-26T00:35:16.411Z,58.624113
2023-04-26T00:40:16.330Z,57.293571
2023-04-26T00:45:16.461Z,57.811429
2023-04-26T00:50:16.647Z,58.282143
2023-04-26T00:55:17.634Z,57.742553
2023-04-26T01:00:16.294Z,56.899291
2023-04-26T01:05:16.754Z,56.102837
2023-04-26T01:10:17.429Z,56.480714
2023-04-26T01:15:16.346Z,57.571127
2023-04-26T01:20:16.464Z,58.128369
2023-04-26T01:25:16.617Z,58.025532
2023-04-26T01:30:16.128Z,58.512057
2023-04-26T01:35:16.136Z,59.310638
2023-04-26T01:40:16.042Z,58.948936
2023-04-26T01:45:15.939Z,58.963121
2023-04-26T01:50:16.837Z,57.378873
2023-04-26T01:55:16.062Z,55.608451
2023-04-26T02:00:15.962Z,55.597872
2023-04-26T02:05:17.079Z,57.233099
2023-04-26T02:10:16.103Z,57.239716
2023-04-26T02:15:16.518Z,58.792199
2023-04-26T02:20:16.023Z,60.108511
2023-04-26T02:25:16.489Z,61.211268
2023-04-26T02:30:16.630Z,62.147518
2023-04-26T02:35:15.833Z,62.017143
2023-04-26T02:40:15.811Z,62.198582
2023-04-26T02:45:17.113Z,62.197887
2023-04-26T02:50:15.963Z,62.919858
2023-04-26T02:55:16.746Z,62.941135
2023-04-26T03:00:16.878Z,62.861538
2023-04-26T03:05:16.434Z,62.481944
2023-04-26T03:10:16.367Z,62.221831
2023-04-26T03:15:15.672Z,62.322378
2023-04-26T03:20:16.398Z,62.519718
2023-04-26T03:25:16.481Z,62.390071
2023-04-26T03:30:16.105Z,62.407692
2023-04-26T03:35:17.087Z,62.793706
2023-04-26T03:40:16.893Z,63.117483
2023-04-26T03:45:17.279Z,63.239161
2023-04-26T03:50:16.106Z,63.120690
2023-04-26T03:55:16.618Z,63.480690
2023-04-26T04:00:17.151Z,63.822759
2023-04-26T04:05:16.165Z,65.118367
2023-04-26T04:10:15.924Z,66.703448
2023-04-26T04:15:16.497Z,67.540000
2023-04-26T04:20:15.842Z,68.042759
2023-04-26T04:25:16.504Z,67.921277
2023-04-26T04:30:16.040Z,68.059155
2023-04-26T04:35:16.649Z,69.083099
2023-04-26T04:40:16.370Z,70.358156
2023-04-26T04:45:16.247Z,70.597887
2023-04-26T04:50:15.825Z,70.973944
2023-04-26T04:55:16.697Z,72.133803
2023-04-26T05:00:16.521Z,72.665493
2023-04-26T05:05:15.975Z,71.912587
2023-04-26T05:10:16.492Z,70.770629
2023-04-26T05:15:15.865Z,70.200699
2023-04-26T05:20:16.008Z,69.659441
2023-04-26T05:25:16.778Z,69.653147
2023-04-26T05:30:15.731Z,69.920979
2023-04-26T05:35:16.804Z,70.028873
2023-04-26T05:40:16.463Z,70.251049
2023-04-26T05:45:16.365Z,70.234028
2023-04-26T05:50:16.918Z,69.941096
2023-04-26T05:55:16.122Z,69.783448
2023-04-26T06:00:17.190Z,69.842657
2023-04-26T06:05:16.233Z,69.488112
2023-04-26T06:10:16.284Z,69.690278
2023-04-26T06:15:16.716Z,69.985417
2023-04-26T06:20:16.140Z,70.781379
2023-04-26T06:25:15.884Z,71.157639
2023-04-26T06:30:16.349Z,70.729167
2023-04-26T06:35:17.115Z,70.784507
2023-04-26T06:40:16.599Z,70.735915
2023-04-26T06:45:16.252Z,71.052482
2023-04-26T06:50:16.204Z,71.949650
2023-04-26T06:55:16.021Z,72.200704
2023-04-26T07:00:15.705Z,72.259574
2023-04-26T07:05:15.911Z,72.067376
2023-04-26T07:11:26.464Z,71.603571
2023-04-26T07:15:16.430Z,71.629577
2023-04-26T07:20:16.425Z,71.666901
2023-04-26T07:25:15.754Z,71.679577
2023-04-26T07:30:16.138Z,71.704965
2023-04-26T07:35:16.574Z,71.837143
2023-04-26T07:40:16.347Z,72.125899
2023-04-26T07:45:16.213Z,72.275000
2023-04-26T07:50:15.806Z,72.344604
2023-04-26T07:55:17.650Z,72.453571
2023-04-26T08:00:16.584Z,72.369718
2023-04-26T08:05:16.238Z,71.877465
2023-04-26T08:10:16.550Z,71.411806
2023-04-26T08:15:15.847Z,71.184615
2023-04-26T08:20:16.353Z,71.046479
2023-04-26T08:25:16.230Z,71.260284
2023-04-26T08:30:16.512Z,71.140000
2023-04-26T08:35:15.745Z,71.405634
2023-04-26T08:40:15.864Z,72.029577
2023-04-26T08:45:16.485Z,72.715493
2023-04-26T08:50:16.297Z,72.509155
2023-04-26T08:55:17.633Z,73.206338
2023-04-26T09:00:16.312Z,73.265517
2023-04-26T09:05:16.492Z,72.931944
2023-04-26T09:10:16.519Z,72.603448
2023-04-26T09:15:15.887Z,73.273793
2023-04-26T09:20:15.769Z,73.682979
2023-04-26T09:25:16.193Z,73.876923
2023-04-26T09:30:16.176Z,73.700000
2023-04-26T09:35:15.760Z,73.700000
2023-04-26T09:40:15.825Z,73.865278
2023-04-26T09:45:16.339Z,75.100000
2023-04-26T09:50:17.048Z,75.827083
2023-04-26T09:55:25.314Z,75.057639
2023-04-26T10:00:15.957Z,75.623611
2023-04-26T10:05:17.529Z,76.314388
2023-04-26T10:10:16.366Z,77.165517
2023-04-26T10:15:16.734Z,76.546853
2023-04-26T10:20:15.886Z,75.936986
2023-04-26T10:25:16.209Z,75.797917
2023-04-26T10:30:15.982Z,75.958333
2023-04-26T10:35:15.740Z,76.511111
2023-04-26T10:40:15.932Z,76.874825
2023-04-26T10:45:16.393Z,76.950350
2023-04-26T10:50:16.342Z,77.303472
2023-04-26T10:55:15.987Z,77.954610
2023-04-26T11:00:15.771Z,78.827857
2023-04-26T11:05:16.629Z,79.068841
2023-04-26T11:10:16.581Z,79.864029
2023-04-26T11:15:16.391Z,80.230657
2023-04-26T11:20:17.735Z,80.262590
2023-04-26T11:25:16.780Z,80.621168
2023-04-26T11:30:15.884Z,80.635971
2023-04-26T11:35:17.049Z,80.594964
2023-04-26T11:40:15.773Z,80.668531
2023-04-26T11:45:16.963Z,79.924476
2023-04-26T11:50:16.292Z,80.268794
2023-04-26T11:55:17.581Z,80.553741
2023-04-26T12:00:16.402Z,79.943056
2023-04-26T12:05:15.841Z,79.911111
2023-04-26T12:10:15.883Z,79.879137
2023-04-26T12:15:16.582Z,80.470504
2023-04-26T12:20:16.360Z,80.329787
2023-04-26T12:25:16.458Z,80.791429
2023-04-26T12:30:16.845Z,80.559155
2023-04-26T12:35:16.651Z,80.145070
2023-04-26T12:40:16.666Z,79.395070
2023-04-26T12:45:15.811Z,79.430769
2023-04-26T12:50:18.693Z,79.190909
2023-04-26T12:55:17.406Z,79.624476
2023-04-26T13:00:16.365Z,79.425874
2023-04-26T13:05:15.778Z,79.229078
2023-04-26T13:10:16.414Z,78.939007
2023-04-26T13:15:17.416Z,79.062411
2023-04-26T13:20:16.816Z,79.002837
2023-04-26T13:25:15.853Z,79.230282
2023-04-26T13:30:16.152Z,78.915603
2023-04-26T13:35:15.919Z,79.226761
2023-04-26T13:40:17.094Z,78.958042
2023-04-26T13:45:18.784Z,79.070833
2023-04-26T13:50:16.191Z,78.635417
2023-04-26T13:55:16.300Z,78.137324
2023-04-26T14:00:16.283Z,78.550000
2023-04-26T14:05:16.842Z,78.627660
2023-04-26T14:10:15.928Z,79.029496
2023-04-26T14:15:17.571Z,79.373913
2023-04-26T14:20:15.919Z,79.874101
2023-04-26T14:25:16.725Z,80.064789
2023-04-26T14:30:16.781Z,78.919580
2023-04-26T14:35:15.887Z,78.680851
2023-04-26T14:40:16.115Z,79.868116
2023-04-26T14:45:15.783Z,80.731655
2023-04-26T14:50:16.680Z,81.061594
2023-04-26T14:55:16.989Z,81.290580
2023-04-26T15:00:16.440Z,81.002206
2023-04-26T15:05:17.120Z,81.043796
2023-04-26T15:10:16.375Z,80.266429
2023-04-26T15:15:15.954Z,79.607914
2023-04-26T15:20:16.206Z,79.300000
2023-04-26T15:25:17.022Z,79.528571
2023-04-26T15:30:15.900Z,80.661871
2023-04-26T15:35:16.011Z,80.587770
2023-04-26T15:40:15.800Z,81.920144
2023-04-26T15:45:16.066Z,81.455797
2023-04-26T15:50:16.207Z,81.533333
2023-04-26T15:55:16.080Z,81.292143
2023-04-26T16:00:16.142Z,80.361702
2023-04-26T16:05:17.062Z,81.309353
2023-04-26T16:10:16.309Z,79.605556
2023-04-26T16:15:16.320Z,77.788194
2023-04-26T16:20:16.492Z,75.625874
2023-04-26T16:25:16.094Z,73.483333
2023-04-26T16:30:16.072Z,72.108966
2023-04-26T16:35:17.205Z,71.715172
2023-04-26T16:40:17.395Z,71.674825
2023-04-26T16:45:16.872Z,71.968794
2023-04-26T16:50:17.334Z,74.342857
2023-04-26T16:55:16.349Z,76.056338
2023-04-26T17:00:16.739Z,76.021831
2023-04-26T17:05:16.426Z,75.920423
2023-04-26T17:10:15.850Z,78.219718
2023-04-26T17:15:16.479Z,79.021986
2023-04-26T17:20:16.193Z,77.489437
2023-04-26T17:25:16.406Z,76.563121
2023-04-26T17:30:15.753Z,74.660993
2023-04-26T17:35:16.193Z,71.970423
2023-04-26T17:40:16.137Z,69.593056
2023-04-26T17:45:15.704Z,68.955556
2023-04-26T17:50:16.870Z,67.427273
2023-04-26T17:55:16.028Z,66.530282
2023-04-26T18:00:15.946Z,64.656028
2023-04-26T18:05:16.099Z,63.479310
2023-04-26T18:10:16.252Z,61.960959
2023-04-26T18:15:16.294Z,64.874830
2023-04-26T18:20:17.333Z,67.004762
2023-04-26T18:25:15.833Z,67.987500
2023-04-26T18:30:16.273Z,68.429167
2023-04-26T18:35:16.558Z,68.006993
2023-04-26T18:40:15.911Z,67.800000
2023-04-26T18:45:15.972Z,68.517730
2023-04-26T18:50:15.885Z,68.209155
2023-04-26T18:55:15.839Z,66.830556
2023-04-26T19:00:17.474Z,66.734483
2023-04-26T19:05:16.037Z,67.399306
2023-04-26T19:10:17.035Z,68.853472
2023-04-26T19:15:16.104Z,67.410274
2023-04-26T19:20:16.476Z,65.856250
2023-04-26T19:25:16.056Z,64.280000
2023-04-26T19:30:15.849Z,62.773288
2023-04-26T19:35:15.778Z,62.672222
2023-04-26T19:40:16.229Z,60.530769
2023-04-26T19:45:16.933Z,60.025000
2023-04-26T19:50:16.074Z,59.664138
2023-04-26T19:55:16.523Z,55.798621
2023-04-26T20:00:16.001Z,57.106897
2023-04-26T20:05:16.459Z,59.843750
2023-04-26T20:10:16.480Z,61.500000
2023-04-26T20:15:16.622Z,62.391667
2023-04-26T20:20:16.517Z,62.000690
2023-04-26T20:25:15.934Z,60.918182
2023-04-26T20:30:15.870Z,60.616901
2023-04-26T20:35:16.798Z,61.270213
2023-04-26T20:40:16.840Z,61.984722
2023-04-26T20:45:17.108Z,63.110490
2023-04-26T20:50:16.483Z,63.760140
2023-04-26T20:55:16.752Z,62.846809
2023-04-26T21:00:16.059Z,59.795804
2023-04-26T21:05:15.816Z,58.954167
2023-04-26T21:10:15.756Z,59.086111
2023-04-26T21:15:16.711Z,59.033333
2023-04-26T21:20:16.663Z,59.175694
2023-04-26T21:25:16.322Z,60.546207
2023-04-26T21:30:15.887Z,61.859722
2023-04-26T21:35:16.173Z,61.260417
2023-04-26T21:40:16.382Z,60.633333
2023-04-26T21:45:15.768Z,60.778322
2023-04-26T21:50:16.569Z,58.575524
2023-04-26T21:55:16.186Z,58.705594
2023-04-26T22:00:16.434Z,59.535417
2023-04-26T22:05:16.438Z,59.139437
2023-04-26T22:10:16.955Z,57.590141
2023-04-26T22:15:16.055Z,57.776923
2023-04-26T22:20:15.878Z,58.181818
2023-04-26T22:25:15.952Z,57.046099
2023-04-26T22:30:25.465Z,58.956738
2023-04-26T22:35:16.253Z,58.752113
2023-04-26T22:40:16.070Z,58.376596
2023-04-26T22:45:17.327Z,58.331206
2023-04-26T22:50:15.990Z,61.084507
2023-04-26T22:55:15.725Z,60.984507
2023-04-26T23:00:15.861Z,58.918310
2023-04-26T23:05:16.385Z,60.182270
2023-04-26T23:10:15.812Z,61.895105
2023-04-26T23:15:16.382Z,62.337324
2023-04-26T23:20:16.303Z,61.636620
2023-04-26T23:25:15.730Z,60.041135
2023-04-26T23:30:16.113Z,59.651408
2023-04-26T23:35:17.233Z,59.093662
2023-04-26T23:40:16.979Z,57.376596
2023-04-26T23:45:17.831Z,56.254225
2023-04-26T23:50:15.873Z,56.396479
2023-04-26T23:55:16.250Z,57.331206
